Time;durP1;ratioP1;P1;durP2;ratioP2;P2;SDS_P1;SDS_P2;PMS_P1;PMS_P2;Temp;Humidity;BMP_temperature;BMP_pressure;BME280_temperature;BME280_humidity;BME280_pressure;Samples;Min_cycle;Max_cycle;Signal;HPM_P1;HPM_P2
2023/12/13 00:01:47;;;;;;;2.15;1.40;;;8.80;99.90;;;;;;4926480;29;20635;-89
2023/12/13 00:04:13;;;;;;;5.95;1.35;;;8.80;99.90;;;;;;4921085;29;20032;-90
2023/12/13 00:06:39;;;;;;;3.10;1.65;;;8.80;99.90;;;;;;4920106;29;20039;-91
2023/12/13 00:09:08;;;;;;;2.05;1.50;;;8.80;99.90;;;;;;4920006;29;20080;-90
2023/12/13 00:11:34;;;;;;;3.00;1.83;;;8.80;99.90;;;;;;4922701;29;20031;-90
2023/12/13 00:14:00;;;;;;;2.03;1.42;;;8.80;99.90;;;;;;4920900;29;20027;-91
2023/12/13 00:16:25;;;;;;;2.47;1.05;;;8.80;99.90;;;;;;4915266;29;20028;-90
2023/12/13 00:18:52;;;;;;;3.60;1.10;;;8.90;99.90;;;;;;4922755;29;20034;-90
2023/12/13 00:21:18;;;;;;;6.00;1.83;;;8.90;99.90;;;;;;4921269;29;20115;-91
2023/12/13 00:23:45;;;;;;;2.63;1.10;;;9.00;99.90;;;;;;4924024;29;20044;-90
2023/12/13 00:26:15;;;;;;;;;;;9.00;99.90;;;;;;4925222;29;20582;-91
2023/12/13 00:28:42;;;;;;;7.75;1.85;;;9.00;99.90;;;;;;4918935;29;19907;-91
2023/12/13 00:31:08;;;;;;;3.72;0.98;;;9.00;99.90;;;;;;4917919;29;20480;-90
2023/12/13 00:33:34;;;;;;;1.55;0.73;;;8.90;99.90;;;;;;4913840;29;20036;-91
2023/12/13 00:36:00;;;;;;;2.58;1.30;;;8.90;99.90;;;;;;4921155;29;20032;-90
2023/12/13 00:38:26;;;;;;;6.38;1.42;;;8.90;99.90;;;;;;4921331;29;20035;-91
2023/12/13 00:40:55;;;;;;;2.58;1.10;;;9.00;99.90;;;;;;4924139;29;20111;-90
2023/12/13 00:43:21;;;;;;;4.88;2.88;;;9.00;99.90;;;;;;4921839;29;20380;-89
2023/12/13 00:45:48;;;;;;;6.93;1.35;;;8.90;99.90;;;;;;4912870;29;20123;-90
2023/12/13 00:48:16;;;;;;;4.47;1.17;;;8.90;99.90;;;;;;4921650;29;20591;-90
2023/12/13 00:50:43;;;;;;;5.97;1.63;;;8.90;99.90;;;;;;4917884;29;20507;-91
2023/12/13 00:53:10;;;;;;;4.55;1.42;;;8.90;99.90;;;;;;4916486;29;20025;-92
2023/12/13 00:55:36;;;;;;;3.22;1.60;;;8.80;99.90;;;;;;4929912;29;20032;-90
2023/12/13 00:58:02;;;;;;;2.42;1.75;;;8.80;99.90;;;;;;4920403;29;20021;-90
2023/12/13 01:00:29;;;;;;;3.05;1.10;;;8.80;99.90;;;;;;4918940;29;20129;-90
2023/12/13 01:02:55;;;;;;;4.93;1.58;;;8.70;99.90;;;;;;4917453;29;20548;-90
2023/12/13 01:05:21;;;;;;;2.58;2.38;;;8.70;99.90;;;;;;4919669;29;20059;-89
2023/12/13 01:07:47;;;;;;;4.80;1.27;;;8.70;99.90;;;;;;4920839;29;20460;-89
2023/12/13 01:10:13;;;;;;;5.20;1.38;;;8.70;99.90;;;;;;4919774;29;20029;-91
2023/12/13 01:12:42;;;;;;;4.82;2.20;;;8.60;99.90;;;;;;4916647;29;20021;-89
2023/12/13 01:15:10;;;;;;;4.00;1.60;;;8.60;99.90;;;;;;4915369;29;20032;-90
2023/12/13 01:17:36;;;;;;;2.38;1.52;;;8.60;99.90;;;;;;4919499;29;20535;-89
2023/12/13 01:20:06;;;;;;;1.63;1.23;;;8.60;99.90;;;;;;4914266;29;20039;-90
2023/12/13 01:22:32;;;;;;;3.58;1.65;;;8.50;99.90;;;;;;4912327;29;20058;-91
2023/12/13 01:24:58;;;;;;;2.40;1.67;;;8.50;99.90;;;;;;4920629;29;20027;-90
2023/12/13 01:27:24;;;;;;;3.17;1.50;;;8.50;99.90;;;;;;4920253;29;20020;-90
2023/12/13 01:29:50;;;;;;;4.10;1.40;;;8.50;99.90;;;;;;4920482;29;20519;-90
2023/12/13 01:32:16;;;;;;;3.78;1.48;;;8.50;99.90;;;;;;4920426;29;20027;-90
2023/12/13 01:34:42;;;;;;;2.65;1.95;;;8.40;99.90;;;;;;4920899;29;20020;-90
2023/12/13 01:37:07;;;;;;;2.17;1.08;;;8.50;99.90;;;;;;4919808;29;20454;-90
2023/12/13 01:39:36;;;;;;;2.58;1.50;;;8.50;99.90;;;;;;4920620;29;20120;-91
2023/12/13 01:42:02;;;;;;;3.22;1.05;;;8.40;99.90;;;;;;4919915;29;20036;-91
2023/12/13 01:44:28;;;;;;;2.17;1.00;;;8.50;99.90;;;;;;4918522;29;20035;-91
2023/12/13 01:46:53;;;;;;;2.42;1.15;;;8.50;99.90;;;;;;4920088;29;20024;-90
2023/12/13 01:49:20;;;;;;;1.88;1.27;;;8.50;99.90;;;;;;4923349;29;20028;-90
2023/12/13 01:51:46;;;;;;;2.10;1.10;;;8.50;99.90;;;;;;4923201;29;20024;-90
2023/12/13 01:54:15;;;;;;;1.65;0.70;;;8.50;99.90;;;;;;4924385;29;20673;-91
2023/12/13 01:56:43;;;;;;;4.35;1.48;;;8.50;99.90;;;;;;4915180;29;20032;-90
2023/12/13 01:59:10;;;;;;;1.95;1.20;;;8.50;99.90;;;;;;4917309;29;20536;-91
2023/12/13 02:01:37;;;;;;;1.55;1.30;;;8.60;99.90;;;;;;4920355;29;20487;-90
2023/12/13 02:04:03;;;;;;;1.85;1.15;;;8.60;99.90;;;;;;4915109;29;20032;-89
2023/12/13 02:06:30;;;;;;;2.47;1.00;;;8.60;99.90;;;;;;4922956;29;20028;-90
2023/12/13 02:08:56;;;;;;;3.50;1.08;;;8.50;99.90;;;;;;4924314;29;20028;-90
2023/12/13 02:11:22;;;;;;;3.05;1.05;;;8.50;99.90;;;;;;4924591;29;20144;-89
2023/12/13 02:13:48;;;;;;;1.15;0.75;;;8.50;99.90;;;;;;4922839;29;20026;-90
2023/12/13 02:16:14;;;;;;;1.73;1.60;;;8.40;99.90;;;;;;4920610;29;20419;-89
2023/12/13 02:18:40;;;;;;;2.15;0.73;;;8.50;99.90;;;;;;4922684;29;20032;-89
2023/12/13 02:21:08;;;;;;;2.55;0.98;;;8.40;99.90;;;;;;4923676;29;20102;-91
2023/12/13 02:23:36;;;;;;;1.80;0.90;;;8.40;99.90;;;;;;4921802;29;20036;-90
2023/12/13 02:26:05;;;;;;;3.65;0.73;;;8.40;99.90;;;;;;4923300;29;20499;-89
2023/12/13 02:28:31;;;;;;;1.33;0.73;;;8.40;99.90;;;;;;4923248;29;20569;-91
2023/12/13 02:30:59;;;;;;;1.52;1.02;;;8.30;99.90;;;;;;4923116;29;20028;-90
2023/12/13 02:33:26;;;;;;;2.17;0.75;;;8.40;99.90;;;;;;4922409;29;20043;-91
2023/12/13 02:35:54;;;;;;;2.75;2.25;;;8.30;99.90;;;;;;4924390;29;20459;-91
2023/12/13 02:38:20;;;;;;;1.23;0.88;;;8.30;99.90;;;;;;4923289;29;20024;-90
2023/12/13 02:40:46;;;;;;;2.83;1.27;;;8.30;99.90;;;;;;4908164;29;20030;-91
2023/12/13 02:43:11;;;;;;;1.17;1.15;;;8.30;99.90;;;;;;4924689;29;20059;-90
2023/12/13 02:45:37;;;;;;;1.70;1.00;;;8.20;99.90;;;;;;4925120;29;20047;-89
2023/12/13 02:48:03;;;;;;;3.92;0.88;;;8.30;99.90;;;;;;4922016;29;20656;-91
2023/12/13 02:50:29;;;;;;;1.52;1.00;;;8.30;99.90;;;;;;4922674;29;20021;-90
2023/12/13 02:52:55;;;;;;;1.75;0.90;;;8.20;99.90;;;;;;4920998;29;20024;-90
2023/12/13 02:55:21;;;;;;;1.17;0.98;;;8.20;99.90;;;;;;4921399;29;20024;-90
2023/12/13 02:57:47;;;;;;;3.83;0.55;;;8.10;99.90;;;;;;4921649;29;20523;-90
2023/12/13 03:00:13;;;;;;;5.68;1.42;;;8.20;99.90;;;;;;4918728;29;20032;-90
2023/12/13 03:02:40;;;;;;;1.63;1.08;;;8.10;99.90;;;;;;4918784;29;20092;-92
2023/12/13 03:05:06;;;;;;;3.08;2.88;;;8.10;99.90;;;;;;4921082;29;20455;-90
2023/12/13 03:07:38;;;;;;;3.65;0.80;;;8.10;99.90;;;;;;4922444;29;20107;-91
2023/12/13 03:10:04;;;;;;;2.08;1.15;;;8.00;99.90;;;;;;4922520;29;20024;-91
2023/12/13 03:12:30;;;;;;;5.82;2.78;;;8.00;99.90;;;;;;4922284;29;20418;-90
2023/12/13 03:14:56;;;;;;;2.95;0.63;;;8.00;99.90;;;;;;4923206;29;20024;-90
2023/12/13 03:17:22;;;;;;;4.57;2.50;;;8.00;99.90;;;;;;4913779;29;20517;-90
2023/12/13 03:19:47;;;;;;;0.80;0.70;;;7.90;99.90;;;;;;4920790;29;20154;-91
2023/12/13 03:22:13;;;;;;;1.55;1.05;;;8.00;99.90;;;;;;4922764;29;20063;-89
2023/12/13 03:24:39;;;;;;;2.50;0.82;;;8.00;99.90;;;;;;4922321;29;20071;-90
2023/12/13 03:27:05;;;;;;;4.65;0.88;;;7.90;99.90;;;;;;4923072;29;20028;-91
2023/12/13 03:29:32;;;;;;;2.28;0.82;;;7.90;99.90;;;;;;4922377;29;20028;-90
2023/12/13 03:31:58;;;;;;;2.13;2.03;;;8.00;99.90;;;;;;4922021;29;20517;-90
2023/12/13 03:34:24;;;;;;;3.28;0.88;;;8.00;99.90;;;;;;4921115;29;20057;-91
2023/12/13 03:36:50;;;;;;;6.07;1.25;;;7.90;99.90;;;;;;4922305;29;20152;-91
2023/12/13 03:39:16;;;;;;;2.72;0.80;;;8.00;99.90;;;;;;4921165;29;20084;-90
2023/12/13 03:41:41;;;;;;;2.60;1.08;;;7.90;99.90;;;;;;4920039;29;20032;-91
2023/12/13 03:44:07;;;;;;;1.25;1.15;;;7.90;99.90;;;;;;4913475;29;20032;-90
2023/12/13 03:46:33;;;;;;;4.43;1.10;;;7.90;99.90;;;;;;4921394;29;20108;-91
2023/12/13 03:48:59;;;;;;;8.00;1.55;;;7.90;99.90;;;;;;4918631;29;20039;-90
2023/12/13 03:51:25;;;;;;;3.72;0.95;;;8.00;99.90;;;;;;4919599;29;20028;-90
2023/12/13 03:53:50;;;;;;;2.47;1.90;;;8.00;99.90;;;;;;4920366;29;20094;-90
2023/12/13 03:56:16;;;;;;;2.50;1.40;;;7.90;99.90;;;;;;4912510;29;20024;-90
2023/12/13 03:58:42;;;;;;;4.55;1.48;;;7.90;99.90;;;;;;4917369;29;20028;-91
2023/12/13 04:01:08;;;;;;;2.38;0.93;;;7.90;99.90;;;;;;4917710;29;20059;-91
2023/12/13 04:03:34;;;;;;;2.75;1.05;;;7.90;99.90;;;;;;4921101;29;20043;-90
2023/12/13 04:06:01;;;;;;;2.35;0.80;;;7.80;99.90;;;;;;4921727;29;20040;-90
2023/12/13 04:08:27;;;;;;;2.45;1.25;;;7.70;99.90;;;;;;4922180;29;20048;-91
2023/12/13 04:10:55;;;;;;;2.92;0.60;;;7.70;99.90;;;;;;4920614;29;20024;-90
2023/12/13 04:13:21;;;;;;;2.83;1.58;;;7.70;99.90;;;;;;4921052;29;20119;-91
2023/12/13 04:15:46;;;;;;;2.72;1.50;;;7.70;99.90;;;;;;4913348;29;20495;-90
2023/12/13 04:18:13;;;;;;;3.03;1.15;;;7.60;99.90;;;;;;4913541;29;20024;-90
2023/12/13 04:20:39;;;;;;;1.55;0.65;;;7.70;99.90;;;;;;4922408;29;20024;-91
2023/12/13 04:23:05;;;;;;;4.32;2.92;;;7.70;99.90;;;;;;4916321;29;20147;-90
2023/12/13 04:25:31;;;;;;;2.03;1.27;;;7.70;99.90;;;;;;4920171;29;20231;-90
2023/12/13 04:27:57;;;;;;;2.70;1.08;;;7.70;99.90;;;;;;4921874;29;20032;-90
2023/12/13 04:30:22;;;;;;;4.13;1.52;;;7.60;99.90;;;;;;4920000;29;20020;-90
2023/12/13 04:32:48;;;;;;;2.40;1.05;;;7.60;99.90;;;;;;4914914;29;20107;-91
2023/12/13 04:35:14;;;;;;;2.47;1.40;;;7.50;99.90;;;;;;4916772;29;20024;-90
2023/12/13 04:37:40;;;;;;;4.97;2.22;;;7.50;99.90;;;;;;4920205;29;20618;-91
2023/12/13 04:40:07;;;;;;;2.05;1.77;;;7.50;99.90;;;;;;4920728;29;20039;-90
2023/12/13 04:42:33;;;;;;;3.25;1.50;;;7.60;99.90;;;;;;4911998;29;20043;-92
2023/12/13 04:45:04;;;;;;;2.03;1.67;;;7.60;99.90;;;;;;4921001;29;20028;-90
2023/12/13 04:47:30;;;;;;;2.63;1.75;;;7.60;99.90;;;;;;4919193;29;20087;-91
2023/12/13 04:49:56;;;;;;;4.72;1.50;;;7.60;99.90;;;;;;4912409;29;20024;-90
2023/12/13 04:52:21;;;;;;;2.60;1.45;;;7.50;99.90;;;;;;4916571;29;20031;-90
2023/12/13 04:54:47;;;;;;;3.45;2.42;;;7.60;99.90;;;;;;4912578;29;20044;-90
2023/12/13 04:57:13;;;;;;;4.60;4.25;;;7.60;99.90;;;;;;4919479;29;20396;-91
2023/12/13 04:59:39;;;;;;;2.05;1.80;;;7.60;99.90;;;;;;4921151;29;20109;-91
2023/12/13 05:02:04;;;;;;;3.60;3.40;;;7.60;99.90;;;;;;4921894;29;20395;-92
2023/12/13 05:04:30;;;;;;;4.72;1.67;;;7.60;99.90;;;;;;4921497;29;20028;-92
2023/12/13 05:06:56;;;;;;;5.00;1.85;;;7.60;99.90;;;;;;4919309;29;20028;-91
2023/12/13 05:09:22;;;;;;;5.13;1.58;;;7.60;99.90;;;;;;4913501;29;20024;-91
2023/12/13 05:11:48;;;;;;;3.22;2.92;;;7.60;99.90;;;;;;4919437;29;20610;-92
2023/12/13 05:14:17;;;;;;;2.60;1.95;;;7.60;99.90;;;;;;4920284;29;20028;-91
2023/12/13 05:16:42;;;;;;;4.13;1.90;;;7.60;99.90;;;;;;4921211;29;20028;-91
2023/12/13 05:19:08;;;;;;;3.55;1.48;;;7.60;99.90;;;;;;4919670;29;20036;-91
2023/12/13 05:21:37;;;;;;;2.10;1.88;;;7.70;99.90;;;;;;4920805;29;20032;-92
2023/12/13 05:24:03;;;;;;;4.30;1.40;;;7.70;99.90;;;;;;4923320;29;20032;-90
2023/12/13 05:26:28;;;;;;;2.75;2.53;;;7.70;99.90;;;;;;4922868;29;20032;-91
2023/12/13 05:28:54;;;;;;;2.33;2.13;;;7.70;99.90;;;;;;4929995;29;20096;-90
2023/12/13 05:31:22;;;;;;;2.53;1.92;;;7.60;99.90;;;;;;4938647;29;20043;-92
2023/12/13 05:33:50;;;;;;;2.95;2.03;;;7.60;99.90;;;;;;4933161;29;20024;-90
2023/12/13 05:36:17;;;;;;;2.20;1.60;;;7.60;99.90;;;;;;4935056;29;20028;-90
2023/12/13 05:38:45;;;;;;;3.10;2.35;;;7.60;99.90;;;;;;4928913;29;20131;-91
2023/12/13 05:41:11;;;;;;;4.35;2.60;;;7.50;99.90;;;;;;4922574;29;20042;-90
2023/12/13 05:43:37;;;;;;;4.32;2.50;;;7.50;99.90;;;;;;4921672;29;20068;-91
2023/12/13 05:46:07;;;;;;;4.25;3.10;;;7.50;99.90;;;;;;4922943;29;20534;-92
2023/12/13 05:48:33;;;;;;;5.72;2.75;;;7.50;99.90;;;;;;4923471;29;20046;-92
2023/12/13 05:50:59;;;;;;;4.25;2.30;;;7.50;99.90;;;;;;4923016;29;20017;-93
2023/12/13 05:53:25;;;;;;;6.43;5.82;;;7.40;99.90;;;;;;4923349;29;20455;-91
2023/12/13 05:55:51;;;;;;;5.22;3.28;;;7.40;99.90;;;;;;4923877;29;20028;-90
2023/12/13 05:58:17;;;;;;;5.55;3.60;;;7.40;99.90;;;;;;4925719;29;20020;-91
2023/12/13 06:00:43;;;;;;;5.93;4.50;;;7.50;99.90;;;;;;4923737;29;20533;-91
2023/12/13 06:03:09;;;;;;;5.10;3.00;;;7.40;99.90;;;;;;4925028;29;20032;-92
2023/12/13 06:05:35;;;;;;;9.50;6.15;;;7.40;99.90;;;;;;4924488;29;20552;-91
2023/12/13 06:08:01;;;;;;;5.20;3.42;;;7.40;99.90;;;;;;4923756;29;20024;-91
2023/12/13 06:10:27;;;;;;;5.90;3.60;;;7.40;99.90;;;;;;4921998;29;20035;-91
2023/12/13 06:12:53;;;;;;;5.47;4.28;;;7.50;99.90;;;;;;4925194;29;20024;-92
2023/12/13 06:15:24;;;;;;;6.30;3.13;;;7.50;99.90;;;;;;4924187;29;20024;-91
2023/12/13 06:17:50;;;;;;;4.97;3.38;;;7.40;99.90;;;;;;4916652;29;20032;-90
2023/12/13 06:20:16;;;;;;;5.55;2.88;;;7.50;99.90;;;;;;4923489;29;20035;-90
2023/12/13 06:22:42;;;;;;;4.85;2.72;;;7.50;99.90;;;;;;4923809;29;20039;-91
2023/12/13 06:25:08;;;;;;;6.80;3.35;;;7.50;99.90;;;;;;4923320;29;20036;-91
2023/12/13 06:27:34;;;;;;;3.88;2.80;;;7.50;99.90;;;;;;4923425;29;20037;-91
2023/12/13 06:30:00;;;;;;;4.80;3.20;;;7.50;99.90;;;;;;4923428;29;20036;-90
2023/12/13 06:32:26;;;;;;;3.90;3.33;;;7.50;99.90;;;;;;4923011;29;20048;-90
2023/12/13 06:34:54;;;;;;;3.78;2.30;;;7.50;99.90;;;;;;4923362;29;20494;-91
2023/12/13 06:37:20;;;;;;;3.38;2.15;;;7.50;99.90;;;;;;4915192;29;20028;-91
2023/12/13 06:39:46;;;;;;;4.88;2.20;;;7.50;99.90;;;;;;4922039;29;20526;-90
2023/12/13 06:42:12;;;;;;;4.90;2.45;;;7.50;99.90;;;;;;4921934;29;20059;-92
2023/12/13 06:44:39;;;;;;;2.70;2.15;;;7.40;99.90;;;;;;4922772;29;20023;-91
2023/12/13 06:47:06;;;;;;;5.32;2.03;;;7.40;99.90;;;;;;4922446;29;20083;-90
2023/12/13 06:49:34;;;;;;;2.75;1.90;;;7.50;99.90;;;;;;4921033;29;20028;-89
2023/12/13 06:52:00;;;;;;;5.05;2.75;;;7.50;99.90;;;;;;4924498;29;20027;-92
2023/12/13 06:54:28;;;;;;;5.50;2.10;;;7.50;99.90;;;;;;4923476;29;20028;-91
2023/12/13 06:56:54;;;;;;;6.07;2.13;;;7.50;99.90;;;;;;4920241;29;20047;-91
2023/12/13 06:59:20;;;;;;;2.55;1.48;;;7.50;99.90;;;;;;4924611;29;20032;-92
2023/12/13 07:01:46;;;;;;;6.28;1.88;;;7.50;99.90;;;;;;4927424;29;20583;-91
2023/12/13 07:04:12;;;;;;;2.35;1.25;;;7.50;99.90;;;;;;4924342;29;20483;-92
2023/12/13 07:06:37;;;;;;;2.58;1.55;;;7.50;99.90;;;;;;4914219;29;20032;-91
2023/12/13 07:09:03;;;;;;;6.03;3.90;;;7.60;99.90;;;;;;4924212;29;20454;-91
2023/12/13 07:11:29;;;;;;;2.00;1.35;;;7.60;99.90;;;;;;4923939;29;20028;-92
2023/12/13 07:13:56;;;;;;;5.60;1.65;;;7.60;99.90;;;;;;4924105;29;20451;-92
2023/12/13 07:16:22;;;;;;;4.28;1.88;;;7.60;99.90;;;;;;4915735;29;20036;-92
2023/12/13 07:18:47;;;;;;;2.90;2.10;;;7.60;99.90;;;;;;4925808;29;20079;-92
2023/12/13 07:21:13;;;;;;;3.95;2.17;;;7.60;99.90;;;;;;4921257;29;20093;-90
2023/12/13 07:23:40;;;;;;;4.80;2.45;;;7.60;99.90;;;;;;4921545;29;20036;-92
2023/12/13 07:26:06;;;;;;;3.28;2.67;;;7.60;99.90;;;;;;4917234;29;20043;-93
2023/12/13 07:28:32;;;;;;;10.35;6.97;;;7.60;99.90;;;;;;4924375;29;20028;-92
2023/12/13 07:31:04;;;;;;;5.38;2.25;;;7.50;99.90;;;;;;4925414;29;20086;-94
2023/12/13 07:33:34;;;;;;;4.22;1.70;;;7.50;99.90;;;;;;4924166;29;20164;-92
2023/12/13 07:36:00;;;;;;;3.17;1.35;;;7.60;99.90;;;;;;4921385;29;20038;-93
2023/12/13 07:38:26;;;;;;;4.65;2.13;;;7.60;99.90;;;;;;4920957;29;20111;-92
2023/12/13 07:40:55;;;;;;;6.57;1.35;;;7.60;99.90;;;;;;4919068;29;20055;-92
2023/12/13 07:43:21;;;;;;;4.68;2.08;;;7.70;99.90;;;;;;4917384;29;20036;-92
2023/12/13 07:45:52;;;;;;;4.63;2.05;;;7.70;99.90;;;;;;4925409;29;20039;-92
2023/12/13 07:48:21;;;;;;;3.95;1.73;;;7.70;99.90;;;;;;4923466;29;20370;-92
2023/12/13 07:50:51;;;;;;;3.60;1.75;;;7.70;99.90;;;;;;4923222;29;20024;-92
2023/12/13 07:53:17;;;;;;;3.28;1.67;;;7.70;99.90;;;;;;4923327;29;20032;-91
2023/12/13 07:55:43;;;;;;;2.83;1.13;;;7.70;99.90;;;;;;4924223;29;20101;-93
2023/12/13 07:58:08;;;;;;;3.83;1.85;;;7.70;99.90;;;;;;4924233;29;20028;-93
2023/12/13 08:00:35;;;;;;;4.03;1.63;;;7.80;99.90;;;;;;4923305;29;20028;-92
2023/12/13 08:03:01;;;;;;;3.90;1.58;;;7.80;99.90;;;;;;4911672;29;20025;-92
2023/12/13 08:05:30;;;;;;;3.40;1.45;;;7.80;99.90;;;;;;4921020;29;20171;-92
2023/12/13 08:07:56;;;;;;;5.15;2.05;;;7.80;99.90;;;;;;4922840;29;20483;-92
2023/12/13 08:10:22;;;;;;;2.70;1.33;;;7.80;99.90;;;;;;4922287;29;20047;-92
2023/12/13 08:12:47;;;;;;;5.15;1.83;;;7.90;99.90;;;;;;4922119;29;20357;-92
2023/12/13 08:15:13;;;;;;;5.63;1.60;;;8.00;99.90;;;;;;4921911;29;20025;-92
2023/12/13 08:17:39;;;;;;;3.75;1.23;;;8.00;99.90;;;;;;4921893;29;20119;-93
2023/12/13 08:20:06;;;;;;;3.63;2.30;;;8.00;99.90;;;;;;4921484;29;20028;-93
2023/12/13 08:22:32;;;;;;;2.38;1.30;;;8.10;99.90;;;;;;4920880;29;20495;-92
2023/12/13 08:24:58;;;;;;;4.80;1.85;;;8.10;99.90;;;;;;4921730;29;20031;-92
2023/12/13 08:27:24;;;;;;;6.60;1.63;;;8.10;99.90;;;;;;4919705;29;20043;-92
2023/12/13 08:29:52;;;;;;;4.03;2.58;;;8.10;99.90;;;;;;4921370;29;20063;-93
2023/12/13 08:32:18;;;;;;;4.22;1.80;;;8.10;99.90;;;;;;4920759;29;20020;-93
2023/12/13 08:34:44;;;;;;;2.67;1.77;;;8.20;99.90;;;;;;4920004;29;20483;-91
2023/12/13 08:37:10;;;;;;;4.40;1.98;;;8.20;99.90;;;;;;4915729;29;20024;-91
2023/12/13 08:39:36;;;;;;;5.20;2.63;;;8.20;99.90;;;;;;4919523;29;20078;-92
2023/12/13 08:42:03;;;;;;;3.90;1.80;;;8.30;99.90;;;;;;4920206;29;20032;-92
2023/12/13 08:44:29;;;;;;;5.55;1.98;;;8.30;99.90;;;;;;4920408;29;20028;-92
2023/12/13 08:46:55;;;;;;;5.15;2.55;;;8.20;99.90;;;;;;4919943;29;20039;-92
2023/12/13 08:49:21;;;;;;;5.57;2.55;;;8.30;99.90;;;;;;4920945;29;20024;-93
2023/12/13 08:51:47;;;;;;;4.35;2.20;;;8.30;99.90;;;;;;4921371;29;20024;-92
2023/12/13 08:54:13;;;;;;;6.07;2.58;;;8.30;99.90;;;;;;4920658;29;20028;-92
2023/12/13 08:56:39;;;;;;;3.47;2.45;;;8.30;99.90;;;;;;4920048;29;20024;-91
2023/12/13 08:59:04;;;;;;;4.22;2.83;;;8.40;99.90;;;;;;4918334;29;20029;-91
2023/12/13 09:01:30;;;;;;;5.25;2.67;;;8.40;99.90;;;;;;4922063;29;20088;-92
2023/12/13 09:03:56;;;;;;;4.45;2.17;;;8.40;99.90;;;;;;4926456;29;20499;-93
2023/12/13 09:06:22;;;;;;;3.53;2.33;;;8.40;99.90;;;;;;4929495;29;20092;-92
2023/12/13 09:08:47;;;;;;;6.15;2.65;;;8.40;99.90;;;;;;4927616;29;20030;-93
2023/12/13 09:11:13;;;;;;;5.70;2.25;;;8.50;99.90;;;;;;4926883;29;20024;-92
2023/12/13 09:13:39;;;;;;;10.30;3.70;;;8.40;99.90;;;;;;4926546;29;20024;-93
2023/12/13 09:16:05;;;;;;;9.98;2.55;;;8.50;99.90;;;;;;4925645;29;20035;-92
2023/12/13 09:18:31;;;;;;;2.90;1.83;;;8.50;99.90;;;;;;4926263;29;20144;-92
2023/12/13 09:20:57;;;;;;;6.68;3.17;;;8.50;99.90;;;;;;4920326;29;20021;-93
2023/12/13 09:23:23;;;;;;;3.92;3.50;;;8.50;99.90;;;;;;4924940;29;20032;-92
2023/12/13 09:25:50;;;;;;;6.32;2.78;;;8.50;99.90;;;;;;4941976;29;20132;-92
2023/12/13 09:28:17;;;;;;;6.35;3.08;;;8.60;99.90;;;;;;4926597;29;20048;-92
2023/12/13 09:30:43;;;;;;;3.95;2.80;;;8.60;99.90;;;;;;4924293;29;20020;-92
2023/12/13 09:33:11;;;;;;;12.95;7.70;;;8.70;99.90;;;;;;4923102;29;20020;-92
2023/12/13 09:35:38;;;;;;;9.52;3.65;;;8.70;99.90;;;;;;4923254;29;20491;-92
2023/12/13 09:38:04;;;;;;;7.13;2.78;;;8.80;99.90;;;;;;4922327;29;20039;-91
2023/12/13 09:40:31;;;;;;;7.60;4.10;;;8.80;99.90;;;;;;4921564;29;20028;-92
2023/12/13 09:42:57;;;;;;;8.88;2.85;;;8.80;99.90;;;;;;4924499;29;20470;-94
2023/12/13 09:45:23;;;;;;;8.55;2.58;;;8.80;99.90;;;;;;4924984;29;20028;-93
2023/12/13 09:47:51;;;;;;;10.15;4.25;;;8.80;99.90;;;;;;4925947;29;20080;-91
2023/12/13 09:50:18;;;;;;;5.10;3.20;;;8.80;99.90;;;;;;4925606;29;20028;-92
2023/12/13 09:52:44;;;;;;;5.63;4.32;;;8.90;99.90;;;;;;4928528;29;20024;-92
2023/12/13 09:55:11;;;;;;;7.60;4.38;;;9.10;99.90;;;;;;4926007;29;20079;-92
2023/12/13 09:57:37;;;;;;;7.05;3.28;;;9.10;99.90;;;;;;4925439;29;20060;-94
2023/12/13 10:00:05;;;;;;;7.68;4.43;;;9.10;99.90;;;;;;4925545;29;20036;-92
2023/12/13 10:02:32;;;;;;;7.65;3.65;;;9.10;99.90;;;;;;4925247;29;20024;-92
2023/12/13 10:05:02;;;;;;;8.75;5.28;;;9.20;99.90;;;;;;4926821;29;20028;-93
2023/12/13 10:07:28;;;;;;;9.50;4.20;;;9.40;99.90;;;;;;4929200;29;20036;-92
2023/12/13 10:09:55;;;;;;;7.45;3.78;;;9.60;99.90;;;;;;4925273;29;20024;-92
2023/12/13 10:12:22;;;;;;;8.98;3.28;;;9.80;99.90;;;;;;4927044;29;20024;-93
2023/12/13 10:14:48;;;;;;;5.57;3.45;;;10.00;99.90;;;;;;4919359;29;20024;-93
2023/12/13 10:17:13;;;;;;;7.38;3.13;;;10.10;99.90;;;;;;4927033;29;20024;-92
2023/12/13 10:19:40;;;;;;;7.97;3.67;;;10.10;99.90;;;;;;4926135;29;20028;-92
2023/12/13 10:22:09;;;;;;;6.82;3.08;;;10.10;99.90;;;;;;4924556;29;20040;-92
2023/12/13 10:24:39;;;;;;;5.88;2.42;;;10.10;99.90;;;;;;4929742;29;20034;-93
2023/12/13 10:27:05;;;;;;;6.95;2.40;;;10.00;99.90;;;;;;4923440;29;20028;-93
2023/12/13 10:29:30;;;;;;;4.30;2.97;;;10.10;99.90;;;;;;4920386;29;20031;-93
2023/12/13 10:31:57;;;;;;;3.80;2.30;;;10.30;99.90;;;;;;4923873;29;20054;-92
2023/12/13 10:34:31;;;;;;;3.50;2.55;;;10.50;99.90;;;;;;4924677;29;20025;-93
2023/12/13 10:37:00;;;;;;;7.80;3.22;;;10.40;99.90;;;;;;4925474;29;20039;-94
2023/12/13 10:39:27;;;;;;;8.88;2.95;;;10.40;99.90;;;;;;4923581;29;20036;-92
2023/12/13 10:41:55;;;;;;;;;;;10.40;99.90;;;;;;4923490;29;20040;-92
2023/12/13 10:44:25;;;;;;;7.90;3.47;;;10.40;99.90;;;;;;4921751;29;20361;-94
2023/12/13 10:46:58;;;;;;;4.55;2.92;;;10.40;99.90;;;;;;4923013;29;20032;-92
2023/12/13 10:49:27;;;;;;;6.03;4.93;;;10.60;99.90;;;;;;4923882;29;20039;-92
2023/12/13 10:51:56;;;;;;;7.05;3.28;;;10.50;99.90;;;;;;4923360;29;20115;-90
2023/12/13 10:54:22;;;;;;;6.60;3.30;;;10.40;99.90;;;;;;4923199;29;20043;-92
2023/12/13 10:56:48;;;;;;;4.32;2.78;;;10.40;99.90;;;;;;4925826;29;20032;-93
2023/12/13 10:59:15;;;;;;;6.43;3.28;;;10.40;99.90;;;;;;4924871;29;20119;-93
2023/12/13 11:01:42;;;;;;;3.55;2.70;;;10.40;99.90;;;;;;4924449;29;20096;-92
2023/12/13 11:04:16;;;;;;;5.82;3.00;;;10.40;99.90;;;;;;4923310;29;20095;-92
2023/12/13 11:06:45;;;;;;;;;;;10.40;99.90;;;;;;4938710;29;20071;-92
2023/12/13 11:09:20;;;;;;;6.35;2.70;;;10.50;99.90;;;;;;4934044;29;20392;-93
2023/12/13 11:11:47;;;;;;;5.38;2.55;;;10.40;99.90;;;;;;4925131;29;20027;-93
2023/12/13 11:14:15;;;;;;;6.10;2.70;;;10.40;99.90;;;;;;4930742;29;20048;-92
2023/12/13 11:16:49;;;;;;;4.10;2.63;;;10.30;99.90;;;;;;4927212;29;20024;-92
2023/12/13 11:19:21;;;;;;;7.80;3.28;;;10.20;99.90;;;;;;4925313;29;20051;-94
2023/12/13 11:21:48;;;;;;;9.18;6.05;;;10.10;99.90;;;;;;4919164;29;20101;-93
2023/12/13 11:24:22;;;;;;;6.95;2.70;;;10.10;99.90;;;;;;4917630;29;20040;-92
2023/12/13 11:26:52;;;;;;;;;;;10.00;99.90;;;;;;4915969;29;20114;-93
2023/12/13 11:29:20;;;;;;;3.00;1.65;;;9.70;99.90;;;;;;4920295;29;19911;-93
2023/12/13 11:31:52;;;;;;;;;;;9.40;99.90;;;;;;4921147;29;20099;-92
2023/12/13 11:34:33;;;;;;;2.10;1.90;;;9.30;99.90;;;;;;4920998;29;20370;-93
2023/12/13 11:37:11;;;;;;;3.42;2.00;;;9.10;99.90;;;;;;4922551;29;20032;-93
2023/12/13 11:39:41;;;;;;;1.88;1.52;;;9.10;99.90;;;;;;4922185;29;20028;-93
2023/12/13 11:42:08;;;;;;;4.35;1.42;;;9.10;99.90;;;;;;4920338;29;20036;-93
2023/12/13 11:44:35;;;;;;;5.85;2.38;;;9.10;99.90;;;;;;4922698;29;20065;-93
2023/12/13 11:47:08;;;;;;;4.10;1.83;;;9.00;99.90;;;;;;4921388;29;20032;-92
2023/12/13 11:49:34;;;;;;;4.28;1.77;;;9.00;99.90;;;;;;4921681;29;20028;-94
2023/12/13 11:52:03;;;;;;;6.78;4.03;;;8.90;99.90;;;;;;4921694;29;20035;-92
2023/12/13 11:54:28;;;;;;;1.90;1.38;;;8.90;99.90;;;;;;4921913;29;20016;-94
2023/12/13 11:56:54;;;;;;;3.95;1.83;;;9.00;99.90;;;;;;4921413;29;20035;-91
2023/12/13 11:59:20;;;;;;;5.95;1.75;;;9.00;99.90;;;;;;4921437;29;20032;-93
2023/12/13 12:01:46;;;;;;;5.00;2.00;;;9.00;99.90;;;;;;4918839;29;20031;-92
2023/12/13 12:04:13;;;;;;;3.08;1.38;;;9.00;99.90;;;;;;4917330;29;20043;-93
2023/12/13 12:06:54;;;;;;;10.10;2.15;;;9.00;99.90;;;;;;4922379;29;20034;-93
2023/12/13 12:09:21;;;;;;;3.42;2.17;;;9.00;99.90;;;;;;4921290;29;20108;-95
2023/12/13 12:11:53;;;;;;;4.57;2.55;;;9.00;99.90;;;;;;4922050;29;20153;-93
2023/12/13 12:14:26;;;;;;;3.85;2.20;;;9.00;99.90;;;;;;4917727;29;20040;-93
2023/12/13 12:16:52;;;;;;;5.68;2.85;;;9.00;99.90;;;;;;4917942;29;20039;-93
2023/12/13 12:19:18;;;;;;;6.38;2.33;;;9.00;99.90;;;;;;4926851;29;20208;-94
2023/12/13 12:21:45;;;;;;;4.13;2.53;;;8.90;99.90;;;;;;4928070;29;20038;-94
2023/12/13 12:24:11;;;;;;;5.90;1.95;;;8.90;99.90;;;;;;4918819;29;20076;-94
2023/12/13 12:26:37;;;;;;;3.63;2.63;;;8.90;99.90;;;;;;4924192;29;20032;-94
2023/12/13 12:29:03;;;;;;;5.68;2.63;;;8.90;99.90;;;;;;4924243;29;20123;-93
2023/12/13 12:31:30;;;;;;;4.70;2.42;;;8.80;99.90;;;;;;4925942;29;20522;-91
2023/12/13 12:33:57;;;;;;;5.03;2.45;;;8.80;99.90;;;;;;4925514;29;20083;-94
2023/12/13 12:36:23;;;;;;;3.67;1.77;;;8.80;99.90;;;;;;4926731;29;20051;-93
2023/12/13 12:38:53;;;;;;;4.30;2.15;;;8.70;99.90;;;;;;4923865;29;20028;-94
2023/12/13 12:41:27;;;;;;;5.20;2.10;;;8.60;99.90;;;;;;4925049;29;20024;-95
2023/12/13 12:43:53;;;;;;;5.00;4.45;;;8.60;99.90;;;;;;4919459;29;20410;-93
2023/12/13 12:46:21;;;;;;;5.22;2.20;;;8.60;99.90;;;;;;4923461;29;20523;-92
2023/12/13 12:48:46;;;;;;;5.20;1.58;;;8.70;99.90;;;;;;4922545;29;20060;-94
2023/12/13 12:51:12;;;;;;;4.35;1.48;;;8.70;99.90;;;;;;4924449;29;20035;-93
2023/12/13 12:53:38;;;;;;;8.85;2.42;;;8.70;99.90;;;;;;4919846;29;20020;-93
2023/12/13 12:56:04;;;;;;;3.95;2.13;;;8.70;99.90;;;;;;4923301;29;20095;-93